• Join FlightAware (Why Join?)
  • Login
  • US Flag 
05:34PM EST


 

Airport Tracker/Info


-or-


 

Live Flight TrackerFlight Track Log ✈ UCA3599 ✈ 23-Mar-2014 ✈ KROA - KIAD

Flight Track Log - Related Links

Times and Time Zones

All times are in EDT time to prevent confusion due to time zone crossing. See the UCA3599 flight status page for this flight to view local times or setup timezone preferences in your user account.

Time Position Orientation Groundspeed Altitude Reporting Facility
EDT Latitude Longitude Course Direction KTS MPH feet Rate Location/Type
06:24AM 37.2719 -79.9583 51° Northeast 169 194 5,500  Level Washington Center
06:25AM 37.3194 -79.9114 38° Northeast 164 189 7,100 1,500 Climbing Washington Center
06:26AM 37.3569 -79.8561 50° Northeast 188 216 8,500 1,260 Climbing Washington Center
06:27AM 37.4006 -79.8061 42° Northeast 201 231 9,700 1,140 Climbing Washington Center
06:28AM 37.5956 -79.5557 51° Northeast  Level FlightAware Approximate
06:28AM 37.4525 -79.7517 40° Northeast 211 243 10,800  Level Washington Center
06:29AM 37.5000 -79.7017 40° Northeast 240 276 11,000 60 Climbing Washington Center
06:30AM 37.5669 -79.6347 38° Northeast 268 308 11,000  Level Washington Center
06:31AM 37.6231 -79.5772 39° Northeast 275 316 11,000  Level Washington Center
06:32AM 37.6922 -79.5075 39° Northeast 280 322 11,000  Level Washington Center
06:33AM 37.7525 -79.4503 37° Northeast 287 330 11,000  Level Washington Center
06:34AM 37.8172 -79.3850 39° Northeast 287 330 11,000  Level Washington Center
06:35AM 37.8797 -79.3200 39° Northeast 287 330 11,000  Level Washington Center
06:36AM 37.9506 -79.2497 38° Northeast 287 330 11,000  Level Washington Center
06:37AM 38.0131 -79.1842 40° Northeast 287 330 11,000  Level Washington Center
06:38AM 38.0756 -79.1186 40° Northeast 287 330 11,000  Level Washington Center
06:39AM 38.1400 -79.0531 39° Northeast 293 337 11,000  Level Washington Center
06:40AM 38.1981 -78.9922 39° Northeast 293 337 11,000  Level Washington Center
06:41AM 38.2625 -78.9264 39° Northeast 293 337 11,000 -60 Level Washington Center
06:42AM 38.3250 -78.8578 41° Northeast 293 337 10,900 -540 Descending Washington Center
06:43AM 38.3872 -78.7889 41° Northeast 293 337 10,000 -960 Descending Washington Center
06:44AM 38.4514 -78.7228 39° Northeast 293 337 9,000 -1,020 Descending Washington Center
06:45AM 38.5136 -78.6564 40° Northeast 293 337 8,000 -960 Descending Washington Center
06:46AM 38.5758 -78.5900 40° Northeast 288 331 7,100 -540 Descending Washington Center
06:47AM 38.6375 -78.5367 34° Northeast 283 326 7,000 -60 Descending Washington Center
06:48AM 38.6647 -78.4472 69° East 268 308 7,000  Level Washington Center
06:49AM 38.6878 -78.3550 72° East 256 295 7,000  Level Washington Center
06:50AM 38.6753 -78.2589 99° East 256 295 7,000  Level Washington Center
06:51AM 38.6586 -78.1625 102° East 256 295 7,000 -360 Level Washington Center
06:52AM 38.6461 -78.0639 99° East 263 303 6,300 -780 Descending Washington Center
06:54AM 38.6167 -77.9000 103° East 269 310 5,000 -540 Descending Potomac TRACON
06:55AM 38.6167 -77.8167 90° East 264 304 5,000  Level Potomac TRACON
06:56AM 38.6167 -77.7333 90° East 268 308 5,000  Level Potomac TRACON
06:57AM 38.6333 -77.6333 78° East 262 302 5,000  Level Potomac TRACON
06:58AM 38.6500 -77.5500 76° East 249 287 5,000 -60 Level Potomac TRACON
06:59AM 38.6667 -77.4667 76° East 231 266 4,900 -180 Descending Potomac TRACON
07:00AM 38.7167 -77.4667 360° North 189 217 4,700 -600 Descending Potomac TRACON
07:01AM 38.7667 -77.4667 360° North 166 191 3,700 -960 Descending Potomac TRACON
07:02AM 38.8167 -77.4667 360° North 147 169 2,900 -840 Descending Potomac TRACON
07:03AM 38.8500 -77.4667 360° North 143 165 2,200 -840 Descending Potomac TRACON
07:04AM 38.8833 -77.4667 360° North 138 159 1,300 -780 Descending Potomac TRACON
07:05AM 38.9167 -77.4667 360° North 96 110 700 -600 Descending Potomac TRACON
07:07AM 38.9333 -77.4500 North  Level FlightAware Approximate
07:14AM 38.9474 -77.4599 331° Northwest  Level Estimated
07:15AM 38.9474 -77.4599 North  Level Estimated
07:16AM 38.9474 -77.4599 North  Level Estimated